sensor_id;sensor_type;location;lat;lon;timestamp;pressure;altitude;pressure_sealevel;temperature
30765;BMP180;494;48.744;10.106;2023-08-20T00:09:53;95790.00;;;23.10
30765;BMP180;494;48.744;10.106;2023-08-20T00:12:32;95924.00;;;23.20
30765;BMP180;494;48.744;10.106;2023-08-20T00:15:42;95589.00;;;23.10
30765;BMP180;494;48.744;10.106;2023-08-20T00:18:40;95903.00;;;23.00
30765;BMP180;494;48.744;10.106;2023-08-20T00:21:51;95646.00;;;23.00
30765;BMP180;494;48.744;10.106;2023-08-20T00:32:59;96131.00;;;22.90
30765;BMP180;494;48.744;10.106;2023-08-20T00:36:28;96055.00;;;22.90
30765;BMP180;494;48.744;10.106;2023-08-20T00:39:06;95551.00;;;22.90
30765;BMP180;494;48.744;10.106;2023-08-20T00:41:58;96199.00;;;21.60
30765;BMP180;494;48.744;10.106;2023-08-20T00:44:57;95674.00;;;22.70
30765;BMP180;494;48.744;10.106;2023-08-20T00:48:09;96131.00;;;22.70
30765;BMP180;494;48.744;10.106;2023-08-20T00:51:20;96144.00;;;21.50
30765;BMP180;494;48.744;10.106;2023-08-20T00:54:31;95690.00;;;22.20
30765;BMP180;494;48.744;10.106;2023-08-20T00:57:51;96125.00;;;22.50
30765;BMP180;494;48.744;10.106;2023-08-20T01:01:05;95730.00;;;21.10
30765;BMP180;494;48.744;10.106;2023-08-20T01:08:06;95815.00;;;22.40
30765;BMP180;494;48.744;10.106;2023-08-20T01:11:40;96125.00;;;22.40
30765;BMP180;494;48.744;10.106;2023-08-20T01:15:51;95604.00;;;22.30
30765;BMP180;494;48.744;10.106;2023-08-20T01:19:25;96131.00;;;22.30
30765;BMP180;494;48.744;10.106;2023-08-20T01:27:10;95727.00;;;22.20
30765;BMP180;494;48.744;10.106;2023-08-20T01:58:09;95697.00;;;20.10
30765;BMP180;494;48.744;10.106;2023-08-20T02:06:29;95777.00;;;22.00
30765;BMP180;494;48.744;10.106;2023-08-20T02:13:33;95775.00;;;21.80
30765;BMP180;494;48.744;10.106;2023-08-20T02:21:22;96166.00;;;19.60
30765;BMP180;494;48.744;10.106;2023-08-20T02:25:18;95508.00;;;22.00
30765;BMP180;494;48.744;10.106;2023-08-20T02:36:24;96156.00;;;21.70
30765;BMP180;494;48.744;10.106;2023-08-20T02:41:04;95838.00;;;20.20
30765;BMP180;494;48.744;10.106;2023-08-20T02:44:21;95656.00;;;19.90
30765;BMP180;494;48.744;10.106;2023-08-20T03:12:48;96076.00;;;19.70
30765;BMP180;494;48.744;10.106;2023-08-20T03:19:56;96151.00;;;21.80
30765;BMP180;494;48.744;10.106;2023-08-20T03:23:05;95730.00;;;20.80
30765;BMP180;494;48.744;10.106;2023-08-20T03:26:34;96142.00;;;21.80
30765;BMP180;494;48.744;10.106;2023-08-20T03:30:17;95641.00;;;20.50
30765;BMP180;494;48.744;10.106;2023-08-20T03:34:03;95796.00;;;21.90
30765;BMP180;494;48.744;10.106;2023-08-20T03:37:57;96145.00;;;21.80
30765;BMP180;494;48.744;10.106;2023-08-20T03:40:59;96129.00;;;21.90
30765;BMP180;494;48.744;10.106;2023-08-20T03:44:08;95922.00;;;20.70
30765;BMP180;494;48.744;10.106;2023-08-20T03:48:24;95577.00;;;21.40
30765;BMP180;494;48.744;10.106;2023-08-20T03:58:24;96279.00;;;21.90
30765;BMP180;494;48.744;10.106;2023-08-20T04:01:17;96118.00;;;21.80
30765;BMP180;494;48.744;10.106;2023-08-20T04:04:56;95681.00;;;21.80
30765;BMP180;494;48.744;10.106;2023-08-20T04:07:50;95810.00;;;21.80
30765;BMP180;494;48.744;10.106;2023-08-20T04:10:52;96350.00;;;21.90
30765;BMP180;494;48.744;10.106;2023-08-20T04:24:21;95844.00;;;21.80
30765;BMP180;494;48.744;10.106;2023-08-20T04:27:46;95801.00;;;21.80
30765;BMP180;494;48.744;10.106;2023-08-20T07:02:37;96215.00;;;27.20
30765;BMP180;494;48.744;10.106;2023-08-20T07:05:08;96145.00;;;27.30
30765;BMP180;494;48.744;10.106;2023-08-20T07:07:39;95917.00;;;27.40
30765;BMP180;494;48.744;10.106;2023-08-20T07:10:16;96049.00;;;27.80
30765;BMP180;494;48.744;10.106;2023-08-20T07:12:52;96221.00;;;27.70
30765;BMP180;494;48.744;10.106;2023-08-20T07:15:31;96212.00;;;28.20
30765;BMP180;494;48.744;10.106;2023-08-20T07:18:23;96195.00;;;28.10
30765;BMP180;494;48.744;10.106;2023-08-20T07:21:09;96208.00;;;28.50
30765;BMP180;494;48.744;10.106;2023-08-20T07:23:42;96255.00;;;28.80
30765;BMP180;494;48.744;10.106;2023-08-20T07:26:42;96247.00;;;28.60
30765;BMP180;494;48.744;10.106;2023-08-20T07:29:14;96146.00;;;29.30
30765;BMP180;494;48.744;10.106;2023-08-20T07:31:46;96198.00;;;29.50
30765;BMP180;494;48.744;10.106;2023-08-20T07:34:31;95903.00;;;29.40
30765;BMP180;494;48.744;10.106;2023-08-20T07:37:08;96236.00;;;29.70
30765;BMP180;494;48.744;10.106;2023-08-20T07:39:42;96222.00;;;29.70
30765;BMP180;494;48.744;10.106;2023-08-20T07:42:22;96073.00;;;29.70
30765;BMP180;494;48.744;10.106;2023-08-20T07:45:04;96202.00;;;30.20
30765;BMP180;494;48.744;10.106;2023-08-20T07:47:45;96228.00;;;30.30
30765;BMP180;494;48.744;10.106;2023-08-20T07:50:27;96249.00;;;30.10
30765;BMP180;494;48.744;10.106;2023-08-20T07:53:15;96003.00;;;30.40
30765;BMP180;494;48.744;10.106;2023-08-20T07:55:47;96078.00;;;29.40
30765;BMP180;494;48.744;10.106;2023-08-20T07:58:19;96211.00;;;29.60
30765;BMP180;494;48.744;10.106;2023-08-20T08:00:52;96242.00;;;30.40
30765;BMP180;494;48.744;10.106;2023-08-20T08:03:24;95835.00;;;30.40
30765;BMP180;494;48.744;10.106;2023-08-20T08:09:44;96365.00;;;31.30
30765;BMP180;494;48.744;10.106;2023-08-20T08:12:24;96323.00;;;31.30
30765;BMP180;494;48.744;10.106;2023-08-20T08:15:38;96080.00;;;31.50
30765;BMP180;494;48.744;10.106;2023-08-20T08:23:29;96233.00;;;32.20
30765;BMP180;494;48.744;10.106;2023-08-20T08:35:24;95858.00;;;32.00
30765;BMP180;494;48.744;10.106;2023-08-20T08:37:53;96238.00;;;32.90
30765;BMP180;494;48.744;10.106;2023-08-20T08:40:22;96241.00;;;33.00
30765;BMP180;494;48.744;10.106;2023-08-20T08:42:52;96203.00;;;33.20
30765;BMP180;494;48.744;10.106;2023-08-20T08:45:22;96176.00;;;33.40
30765;BMP180;494;48.744;10.106;2023-08-20T08:47:54;96176.00;;;33.20
30765;BMP180;494;48.744;10.106;2023-08-20T08:50:25;96155.00;;;33.60
30765;BMP180;494;48.744;10.106;2023-08-20T08:52:54;96219.00;;;33.70
30765;BMP180;494;48.744;10.106;2023-08-20T08:55:24;96250.00;;;33.70
30765;BMP180;494;48.744;10.106;2023-08-20T08:57:53;96202.00;;;33.80
30765;BMP180;494;48.744;10.106;2023-08-20T09:00:23;96272.00;;;33.90
30765;BMP180;494;48.744;10.106;2023-08-20T09:02:53;96256.00;;;33.90
30765;BMP180;494;48.744;10.106;2023-08-20T09:05:24;96277.00;;;34.30
30765;BMP180;494;48.744;10.106;2023-08-20T09:07:56;96252.00;;;34.50
30765;BMP180;494;48.744;10.106;2023-08-20T09:10:26;96002.00;;;34.60
30765;BMP180;494;48.744;10.106;2023-08-20T09:12:58;96282.00;;;34.90
30765;BMP180;494;48.744;10.106;2023-08-20T09:15:33;96277.00;;;34.90
30765;BMP180;494;48.744;10.106;2023-08-20T09:18:04;96193.00;;;35.10
30765;BMP180;494;48.744;10.106;2023-08-20T09:20:38;96274.00;;;35.40
30765;BMP180;494;48.744;10.106;2023-08-20T09:23:11;96262.00;;;35.60
30765;BMP180;494;48.744;10.106;2023-08-20T09:25:42;96229.00;;;35.60
30765;BMP180;494;48.744;10.106;2023-08-20T09:28:11;96218.00;;;35.60
30765;BMP180;494;48.744;10.106;2023-08-20T09:30:40;96189.00;;;35.40
30765;BMP180;494;48.744;10.106;2023-08-20T09:33:11;96275.00;;;35.90
30765;BMP180;494;48.744;10.106;2023-08-20T09:35:50;96221.00;;;36.30
30765;BMP180;494;48.744;10.106;2023-08-20T09:38:41;96269.00;;;36.40
30765;BMP180;494;48.744;10.106;2023-08-20T09:41:29;96287.00;;;36.70
30765;BMP180;494;48.744;10.106;2023-08-20T09:44:05;96266.00;;;37.00
30765;BMP180;494;48.744;10.106;2023-08-20T09:46:38;96261.00;;;37.10
30765;BMP180;494;48.744;10.106;2023-08-20T09:49:15;96248.00;;;37.20
30765;BMP180;494;48.744;10.106;2023-08-20T10:21:10;96230.00;;;38.70
30765;BMP180;494;48.744;10.106;2023-08-20T10:54:25;96236.00;;;38.90
30765;BMP180;494;48.744;10.106;2023-08-20T10:56:57;96288.00;;;38.90
30765;BMP180;494;48.744;10.106;2023-08-20T10:59:28;96243.00;;;38.90
30765;BMP180;494;48.744;10.106;2023-08-20T11:01:59;96273.00;;;39.10
30765;BMP180;494;48.744;10.106;2023-08-20T11:04:30;96274.00;;;39.40
30765;BMP180;494;48.744;10.106;2023-08-20T11:07:54;96282.00;;;39.70
30765;BMP180;494;48.744;10.106;2023-08-20T12:26:03;96257.00;;;41.60
30765;BMP180;494;48.744;10.106;2023-08-20T12:28:35;96186.00;;;42.00
30765;BMP180;494;48.744;10.106;2023-08-20T12:31:04;96178.00;;;42.10
30765;BMP180;494;48.744;10.106;2023-08-20T12:33:32;96200.00;;;42.50
30765;BMP180;494;48.744;10.106;2023-08-20T12:36:01;96198.00;;;42.70
30765;BMP180;494;48.744;10.106;2023-08-20T12:38:43;96108.00;;;42.60
30765;BMP180;494;48.744;10.106;2023-08-20T12:41:14;96196.00;;;42.50
30765;BMP180;494;48.744;10.106;2023-08-20T12:43:44;96239.00;;;43.10
30765;BMP180;494;48.744;10.106;2023-08-20T12:46:12;96182.00;;;43.20
30765;BMP180;494;48.744;10.106;2023-08-20T12:48:42;96232.00;;;42.80
30765;BMP180;494;48.744;10.106;2023-08-20T12:51:11;96230.00;;;43.00
30765;BMP180;494;48.744;10.106;2023-08-20T12:53:43;96188.00;;;43.00
30765;BMP180;494;48.744;10.106;2023-08-20T13:34:44;96237.00;;;42.30
30765;BMP180;494;48.744;10.106;2023-08-20T13:37:14;96215.00;;;42.70
30765;BMP180;494;48.744;10.106;2023-08-20T13:44:08;96006.00;;;42.80
30765;BMP180;494;48.744;10.106;2023-08-20T13:47:17;96265.00;;;43.00
30765;BMP180;494;48.744;10.106;2023-08-20T13:49:51;96240.00;;;42.90
30765;BMP180;494;48.744;10.106;2023-08-20T13:52:39;96187.00;;;43.20
30765;BMP180;494;48.744;10.106;2023-08-20T13:56:16;96208.00;;;42.80
30765;BMP180;494;48.744;10.106;2023-08-20T13:59:43;96209.00;;;42.90
30765;BMP180;494;48.744;10.106;2023-08-20T14:05:41;96210.00;;;43.40
30765;BMP180;494;48.744;10.106;2023-08-20T14:08:12;96117.00;;;43.30
30765;BMP180;494;48.744;10.106;2023-08-20T14:10:58;96097.00;;;42.50
30765;BMP180;494;48.744;10.106;2023-08-20T14:17:34;96204.00;;;44.00
30765;BMP180;494;48.744;10.106;2023-08-20T14:20:07;96193.00;;;44.00
30765;BMP180;494;48.744;10.106;2023-08-20T14:26:12;96215.00;;;44.40
30765;BMP180;494;48.744;10.106;2023-08-20T14:28:43;96211.00;;;44.70
30765;BMP180;494;48.744;10.106;2023-08-20T14:31:20;96186.00;;;44.70
30765;BMP180;494;48.744;10.106;2023-08-20T14:33:51;96011.00;;;44.80
30765;BMP180;494;48.744;10.106;2023-08-20T14:36:27;95943.00;;;45.20
30765;BMP180;494;48.744;10.106;2023-08-20T14:39:05;96151.00;;;45.20
30765;BMP180;494;48.744;10.106;2023-08-20T14:41:41;96230.00;;;45.00
30765;BMP180;494;48.744;10.106;2023-08-20T14:44:15;95966.00;;;44.60
30765;BMP180;494;48.744;10.106;2023-08-20T14:46:44;96163.00;;;45.00
30765;BMP180;494;48.744;10.106;2023-08-20T14:49:14;96154.00;;;45.00
30765;BMP180;494;48.744;10.106;2023-08-20T14:51:43;96161.00;;;45.00
30765;BMP180;494;48.744;10.106;2023-08-20T14:54:13;96090.00;;;45.10
30765;BMP180;494;48.744;10.106;2023-08-20T14:56:44;96188.00;;;44.90
30765;BMP180;494;48.744;10.106;2023-08-20T14:59:15;96192.00;;;45.00
30765;BMP180;494;48.744;10.106;2023-08-20T15:01:49;96038.00;;;44.50
30765;BMP180;494;48.744;10.106;2023-08-20T15:04:20;96197.00;;;44.70
30765;BMP180;494;48.744;10.106;2023-08-20T15:06:50;96152.00;;;44.90
30765;BMP180;494;48.744;10.106;2023-08-20T15:09:19;96275.00;;;44.60
30765;BMP180;494;48.744;10.106;2023-08-20T15:12:00;96192.00;;;44.70
30765;BMP180;494;48.744;10.106;2023-08-20T15:35:36;96182.00;;;42.60
30765;BMP180;494;48.744;10.106;2023-08-20T15:41:44;96197.00;;;41.20
30765;BMP180;494;48.744;10.106;2023-08-20T16:45:10;96134.00;;;39.00
30765;BMP180;494;48.744;10.106;2023-08-20T16:47:39;96154.00;;;38.40
30765;BMP180;494;48.744;10.106;2023-08-20T16:50:10;96189.00;;;37.70
30765;BMP180;494;48.744;10.106;2023-08-20T17:43:19;96109.00;;;31.70
30765;BMP180;494;48.744;10.106;2023-08-20T17:45:51;96210.00;;;31.60
30765;BMP180;494;48.744;10.106;2023-08-20T17:48:20;96143.00;;;31.40
30765;BMP180;494;48.744;10.106;2023-08-20T17:50:48;96199.00;;;31.20
30765;BMP180;494;48.744;10.106;2023-08-20T17:53:17;96219.00;;;31.00
30765;BMP180;494;48.744;10.106;2023-08-20T17:55:45;96196.00;;;30.70
30765;BMP180;494;48.744;10.106;2023-08-20T17:58:14;96123.00;;;30.70
30765;BMP180;494;48.744;10.106;2023-08-20T18:00:55;96179.00;;;30.10
30765;BMP180;494;48.744;10.106;2023-08-20T18:03:25;96107.00;;;30.30
30765;BMP180;494;48.744;10.106;2023-08-20T18:05:53;95986.00;;;30.00
30765;BMP180;494;48.744;10.106;2023-08-20T18:08:24;96126.00;;;29.90
30765;BMP180;494;48.744;10.106;2023-08-20T18:10:52;96231.00;;;29.80
30765;BMP180;494;48.744;10.106;2023-08-20T18:13:25;96212.00;;;29.70
30765;BMP180;494;48.744;10.106;2023-08-20T18:15:56;96159.00;;;29.30
30765;BMP180;494;48.744;10.106;2023-08-20T18:18:25;96204.00;;;29.40
30765;BMP180;494;48.744;10.106;2023-08-20T18:20:56;96232.00;;;29.40
30765;BMP180;494;48.744;10.106;2023-08-20T18:23:24;96155.00;;;29.10
30765;BMP180;494;48.744;10.106;2023-08-20T18:25:54;96204.00;;;29.20
30765;BMP180;494;48.744;10.106;2023-08-20T18:28:22;96160.00;;;29.00
30765;BMP180;494;48.744;10.106;2023-08-20T18:30:52;96222.00;;;28.90
30765;BMP180;494;48.744;10.106;2023-08-20T18:33:23;96055.00;;;29.00
30765;BMP180;494;48.744;10.106;2023-08-20T18:36:00;96272.00;;;28.90
30765;BMP180;494;48.744;10.106;2023-08-20T18:38:38;96173.00;;;28.80
30765;BMP180;494;48.744;10.106;2023-08-20T18:41:10;96223.00;;;27.90
30765;BMP180;494;48.744;10.106;2023-08-20T18:43:42;96181.00;;;28.60
30765;BMP180;494;48.744;10.106;2023-08-20T18:46:14;96231.00;;;28.50
30765;BMP180;494;48.744;10.106;2023-08-20T18:48:44;96235.00;;;28.50
30765;BMP180;494;48.744;10.106;2023-08-20T18:51:13;96169.00;;;28.30
30765;BMP180;494;48.744;10.106;2023-08-20T18:53:45;96241.00;;;28.20
30765;BMP180;494;48.744;10.106;2023-08-20T18:56:13;96169.00;;;28.00
30765;BMP180;494;48.744;10.106;2023-08-20T18:58:42;96251.00;;;28.10
30765;BMP180;494;48.744;10.106;2023-08-20T19:01:12;96230.00;;;27.90
30765;BMP180;494;48.744;10.106;2023-08-20T19:03:40;96259.00;;;27.50
30765;BMP180;494;48.744;10.106;2023-08-20T19:06:11;96273.00;;;27.90
30765;BMP180;494;48.744;10.106;2023-08-20T19:08:40;96266.00;;;27.80
30765;BMP180;494;48.744;10.106;2023-08-20T19:11:09;96264.00;;;27.80
30765;BMP180;494;48.744;10.106;2023-08-20T19:13:38;96261.00;;;27.60
30765;BMP180;494;48.744;10.106;2023-08-20T19:16:07;96276.00;;;27.80
30765;BMP180;494;48.744;10.106;2023-08-20T19:18:36;96046.00;;;27.80
30765;BMP180;494;48.744;10.106;2023-08-20T19:21:05;96144.00;;;27.80
30765;BMP180;494;48.744;10.106;2023-08-20T19:23:35;96093.00;;;27.70
30765;BMP180;494;48.744;10.106;2023-08-20T19:26:04;96273.00;;;27.70
30765;BMP180;494;48.744;10.106;2023-08-20T19:28:35;96171.00;;;27.60
30765;BMP180;494;48.744;10.106;2023-08-20T19:31:11;96277.00;;;27.60
30765;BMP180;494;48.744;10.106;2023-08-20T19:33:46;96283.00;;;27.50
30765;BMP180;494;48.744;10.106;2023-08-20T19:36:15;95987.00;;;27.50
30765;BMP180;494;48.744;10.106;2023-08-20T19:38:46;96286.00;;;27.50
30765;BMP180;494;48.744;10.106;2023-08-20T19:41:15;96322.00;;;27.20
30765;BMP180;494;48.744;10.106;2023-08-20T19:43:44;96184.00;;;27.30
30765;BMP180;494;48.744;10.106;2023-08-20T19:46:13;96193.00;;;27.40
30765;BMP180;494;48.744;10.106;2023-08-20T19:48:42;96160.00;;;27.40
30765;BMP180;494;48.744;10.106;2023-08-20T19:51:11;96190.00;;;27.40
30765;BMP180;494;48.744;10.106;2023-08-20T19:53:40;96276.00;;;27.40
30765;BMP180;494;48.744;10.106;2023-08-20T19:56:13;96278.00;;;27.50
30765;BMP180;494;48.744;10.106;2023-08-20T19:58:43;96177.00;;;27.10
30765;BMP180;494;48.744;10.106;2023-08-20T20:01:11;95999.00;;;27.20
30765;BMP180;494;48.744;10.106;2023-08-20T20:03:42;95980.00;;;27.20
30765;BMP180;494;48.744;10.106;2023-08-20T20:06:11;96000.00;;;27.20
30765;BMP180;494;48.744;10.106;2023-08-20T20:08:40;96128.00;;;27.10
30765;BMP180;494;48.744;10.106;2023-08-20T20:11:09;96282.00;;;27.10
30765;BMP180;494;48.744;10.106;2023-08-20T20:13:40;96288.00;;;27.00
30765;BMP180;494;48.744;10.106;2023-08-20T20:16:08;96241.00;;;27.10
30765;BMP180;494;48.744;10.106;2023-08-20T20:18:37;96215.00;;;27.20
30765;BMP180;494;48.744;10.106;2023-08-20T20:21:06;96285.00;;;27.10
30765;BMP180;494;48.744;10.106;2023-08-20T20:23:35;96277.00;;;27.00
30765;BMP180;494;48.744;10.106;2023-08-20T20:26:04;96071.00;;;27.10
30765;BMP180;494;48.744;10.106;2023-08-20T20:28:33;96279.00;;;26.80
30765;BMP180;494;48.744;10.106;2023-08-20T20:31:05;96291.00;;;27.10
30765;BMP180;494;48.744;10.106;2023-08-20T20:33:33;96295.00;;;27.00
30765;BMP180;494;48.744;10.106;2023-08-20T20:36:03;96290.00;;;27.10
30765;BMP180;494;48.744;10.106;2023-08-20T20:38:36;96284.00;;;26.90
30765;BMP180;494;48.744;10.106;2023-08-20T20:41:07;96284.00;;;27.00
30765;BMP180;494;48.744;10.106;2023-08-20T20:43:36;96191.00;;;26.70
30765;BMP180;494;48.744;10.106;2023-08-20T20:46:06;96291.00;;;26.80
30765;BMP180;494;48.744;10.106;2023-08-20T20:48:36;96247.00;;;27.00
30765;BMP180;494;48.744;10.106;2023-08-20T20:51:05;96195.00;;;26.90
30765;BMP180;494;48.744;10.106;2023-08-20T20:53:34;96253.00;;;26.80
30765;BMP180;494;48.744;10.106;2023-08-20T20:56:03;96295.00;;;26.80
30765;BMP180;494;48.744;10.106;2023-08-20T20:58:32;96248.00;;;26.80
30765;BMP180;494;48.744;10.106;2023-08-20T21:01:00;96195.00;;;26.70
30765;BMP180;494;48.744;10.106;2023-08-20T21:03:31;96332.00;;;26.60
30765;BMP180;494;48.744;10.106;2023-08-20T21:06:03;96289.00;;;26.70
30765;BMP180;494;48.744;10.106;2023-08-20T21:08:33;96285.00;;;26.70
30765;BMP180;494;48.744;10.106;2023-08-20T21:11:02;96230.00;;;26.70
30765;BMP180;494;48.744;10.106;2023-08-20T21:13:31;96238.00;;;26.40
30765;BMP180;494;48.744;10.106;2023-08-20T21:16:00;96258.00;;;26.80
30765;BMP180;494;48.744;10.106;2023-08-20T21:18:29;96047.00;;;26.40
30765;BMP180;494;48.744;10.106;2023-08-20T21:20:59;96295.00;;;26.80
30765;BMP180;494;48.744;10.106;2023-08-20T21:23:28;95974.00;;;26.10
30765;BMP180;494;48.744;10.106;2023-08-20T21:25:57;96201.00;;;26.40
30765;BMP180;494;48.744;10.106;2023-08-20T21:28:26;96201.00;;;26.50
30765;BMP180;494;48.744;10.106;2023-08-20T21:30:55;96223.00;;;26.20
30765;BMP180;494;48.744;10.106;2023-08-20T21:33:25;96254.00;;;26.60
30765;BMP180;494;48.744;10.106;2023-08-20T21:35:55;96304.00;;;26.30
30765;BMP180;494;48.744;10.106;2023-08-20T21:38:25;96269.00;;;26.10
30765;BMP180;494;48.744;10.106;2023-08-20T21:40:53;96156.00;;;26.10
30765;BMP180;494;48.744;10.106;2023-08-20T21:43:22;96308.00;;;26.30
30765;BMP180;494;48.744;10.106;2023-08-20T21:45:51;96300.00;;;26.30
30765;BMP180;494;48.744;10.106;2023-08-20T21:48:20;96314.00;;;26.10
30765;BMP180;494;48.744;10.106;2023-08-20T21:50:49;96311.00;;;26.10
30765;BMP180;494;48.744;10.106;2023-08-20T21:53:18;96194.00;;;25.80
30765;BMP180;494;48.744;10.106;2023-08-20T21:55:55;96361.00;;;25.20
30765;BMP180;494;48.744;10.106;2023-08-20T21:58:24;96196.00;;;25.80
30765;BMP180;494;48.744;10.106;2023-08-20T22:00:53;96312.00;;;25.80
30765;BMP180;494;48.744;10.106;2023-08-20T22:03:23;96307.00;;;25.80
30765;BMP180;494;48.744;10.106;2023-08-20T22:05:53;96303.00;;;25.70
30765;BMP180;494;48.744;10.106;2023-08-20T22:08:22;96307.00;;;25.70
30765;BMP180;494;48.744;10.106;2023-08-20T22:10:56;96293.00;;;25.60
30765;BMP180;494;48.744;10.106;2023-08-20T22:13:32;96427.00;;;24.30
30765;BMP180;494;48.744;10.106;2023-08-20T22:16:03;95920.00;;;24.90
30765;BMP180;494;48.744;10.106;2023-08-20T22:18:33;96335.00;;;25.60
30765;BMP180;494;48.744;10.106;2023-08-20T22:21:02;96259.00;;;25.60
30765;BMP180;494;48.744;10.106;2023-08-20T22:23:30;96308.00;;;25.50
30765;BMP180;494;48.744;10.106;2023-08-20T22:26:04;96219.00;;;25.30
30765;BMP180;494;48.744;10.106;2023-08-20T22:28:33;96308.00;;;25.40
30765;BMP180;494;48.744;10.106;2023-08-20T22:31:02;96219.00;;;25.20
30765;BMP180;494;48.744;10.106;2023-08-20T22:33:31;96238.00;;;25.30
30765;BMP180;494;48.744;10.106;2023-08-20T22:36:00;96316.00;;;25.10
30765;BMP180;494;48.744;10.106;2023-08-20T22:38:29;96309.00;;;25.10
30765;BMP180;494;48.744;10.106;2023-08-20T22:40:58;96199.00;;;25.10
30765;BMP180;494;48.744;10.106;2023-08-20T22:43:29;96312.00;;;25.10
30765;BMP180;494;48.744;10.106;2023-08-20T22:45:57;96314.00;;;25.00
30765;BMP180;494;48.744;10.106;2023-08-20T22:48:28;96273.00;;;24.90
30765;BMP180;494;48.744;10.106;2023-08-20T22:50:57;96243.00;;;24.80
30765;BMP180;494;48.744;10.106;2023-08-20T22:53:26;96307.00;;;25.00
30765;BMP180;494;48.744;10.106;2023-08-20T22:55:57;96308.00;;;25.00
30765;BMP180;494;48.744;10.106;2023-08-20T22:58:25;96296.00;;;25.00
30765;BMP180;494;48.744;10.106;2023-08-20T23:00:56;96245.00;;;24.90
30765;BMP180;494;48.744;10.106;2023-08-20T23:03:25;96311.00;;;25.00
30765;BMP180;494;48.744;10.106;2023-08-20T23:05:56;96121.00;;;24.70
30765;BMP180;494;48.744;10.106;2023-08-20T23:08:24;96227.00;;;24.90
30765;BMP180;494;48.744;10.106;2023-08-20T23:10:53;96164.00;;;24.90
30765;BMP180;494;48.744;10.106;2023-08-20T23:13:23;96270.00;;;24.90
30765;BMP180;494;48.744;10.106;2023-08-20T23:15:53;96110.00;;;24.70
30765;BMP180;494;48.744;10.106;2023-08-20T23:18:24;96304.00;;;24.50
30765;BMP180;494;48.744;10.106;2023-08-20T23:20:58;96329.00;;;24.50
30765;BMP180;494;48.744;10.106;2023-08-20T23:23:28;96204.00;;;24.00
30765;BMP180;494;48.744;10.106;2023-08-20T23:25:57;96248.00;;;24.50
30765;BMP180;494;48.744;10.106;2023-08-20T23:28:26;96242.00;;;24.50
30765;BMP180;494;48.744;10.106;2023-08-20T23:30:54;96278.00;;;24.50
30765;BMP180;494;48.744;10.106;2023-08-20T23:33:25;96229.00;;;23.70
30765;BMP180;494;48.744;10.106;2023-08-20T23:35:54;96298.00;;;24.50
30765;BMP180;494;48.744;10.106;2023-08-20T23:38:22;96282.00;;;24.40
30765;BMP180;494;48.744;10.106;2023-08-20T23:40:54;96294.00;;;24.00
30765;BMP180;494;48.744;10.106;2023-08-20T23:43:23;96296.00;;;24.30
30765;BMP180;494;48.744;10.106;2023-08-20T23:45:53;96228.00;;;24.10
30765;BMP180;494;48.744;10.106;2023-08-20T23:48:24;96258.00;;;24.20
30765;BMP180;494;48.744;10.106;2023-08-20T23:50:53;96299.00;;;24.20
30765;BMP180;494;48.744;10.106;2023-08-20T23:53:22;96295.00;;;24.20
30765;BMP180;494;48.744;10.106;2023-08-20T23:55:51;96237.00;;;24.00
30765;BMP180;494;48.744;10.106;2023-08-20T23:58:20;96295.00;;;24.20
